FDB9XK OMDB-OPMT
Flight info
| Callsign | FDB9XK |
|---|---|
| Flight time | 2h 10m |
| Altitude | 37000 |
| Route | IVURO M677 LALDO A791 BIVIN G214 SK J119 KASBI |
| Aircraft | B738/M-SDE2E3FGHIRWXY/LB1 |
Departure
| Time | 2026-05-04 17:48 |
|---|---|
| Airport | Dubai International Airport (OMDB) |
Arrival
| Time | 2026-05-04 19:59 |
|---|---|
| Airport | Multan International Airport (OPMT) |
| Time | Latitude | Longitude | Altitude | Speed | Heading |
|---|---|---|---|---|---|
| 2026-05-04 17:06 | 25.26720 | 55.35331 | 21 ft | 0 kts | 31° |
| 2026-05-04 17:30 | 25.26681 | 55.35305 | 23 ft | 3 kts | 31° |
| 2026-05-04 17:31 | 25.26657 | 55.35269 | 23 ft | 4 kts | 110° |
| 2026-05-04 17:31 | 25.26670 | 55.35242 | 23 ft | 1 kts | 121° |
| 2026-05-04 17:34 | 25.26655 | 55.35270 | 23 ft | 13 kts | 120° |
| 2026-05-04 17:35 | 25.26482 | 55.35576 | 21 ft | 16 kts | 121° |
| 2026-05-04 17:35 | 25.26373 | 55.35777 | 21 ft | 15 kts | 125° |
| 2026-05-04 17:35 | 25.26318 | 55.35868 | 21 ft | 14 kts | 123° |
| 2026-05-04 17:36 | 25.26266 | 55.35956 | 21 ft | 13 kts | 123° |
| 2026-05-04 17:36 | 25.26217 | 55.36041 | 21 ft | 13 kts | 122° |
| 2026-05-04 17:36 | 25.26172 | 55.36125 | 21 ft | 13 kts | 115° |
| 2026-05-04 17:36 | 25.26130 | 55.36208 | 21 ft | 12 kts | 121° |
| 2026-05-04 17:37 | 25.26086 | 55.36288 | 24 ft | 12 kts | 121° |
| 2026-05-04 17:37 | 25.26038 | 55.36372 | 22 ft | 18 kts | 124° |
| 2026-05-04 17:37 | 25.25960 | 55.36503 | 21 ft | 21 kts | 123° |
| 2026-05-04 17:37 | 25.25886 | 55.36635 | 21 ft | 20 kts | 121° |
| 2026-05-04 17:38 | 25.25809 | 55.36775 | 22 ft | 19 kts | 121° |
| 2026-05-04 17:38 | 25.25739 | 55.36899 | 21 ft | 19 kts | 122° |
| 2026-05-04 17:38 | 25.25667 | 55.37025 | 21 ft | 18 kts | 122° |
| 2026-05-04 17:38 | 25.25604 | 55.37141 | 22 ft | 18 kts | 120° |
| 2026-05-04 17:39 | 25.25479 | 55.37361 | 23 ft | 16 kts | 125° |
| 2026-05-04 17:39 | 25.25420 | 55.37466 | 23 ft | 16 kts | 121° |
| 2026-05-04 17:39 | 25.25364 | 55.37566 | 23 ft | 15 kts | 122° |
| 2026-05-04 17:40 | 25.25309 | 55.37664 | 24 ft | 14 kts | 122° |
| 2026-05-04 17:40 | 25.25257 | 55.37755 | 21 ft | 14 kts | 122° |
| 2026-05-04 17:40 | 25.25207 | 55.37842 | 23 ft | 13 kts | 122° |
| 2026-05-04 17:40 | 25.25159 | 55.37926 | 22 ft | 13 kts | 122° |
| 2026-05-04 17:41 | 25.25111 | 55.38007 | 21 ft | 12 kts | 123° |
| 2026-05-04 17:41 | 25.25069 | 55.38071 | 22 ft | 6 kts | 163° |
| 2026-05-04 17:41 | 25.25031 | 55.38059 | 21 ft | 6 kts | 200° |
| 2026-05-04 17:41 | 25.24994 | 55.38045 | 23 ft | 6 kts | 199° |
| 2026-05-04 17:42 | 25.24958 | 55.38028 | 24 ft | 6 kts | 207° |
| 2026-05-04 17:42 | 25.24942 | 55.38018 | 27 ft | 0 kts | 210° |
| 2026-05-04 17:46 | 25.24938 | 55.38015 | 27 ft | 5 kts | 210° |
| 2026-05-04 17:46 | 25.24906 | 55.37995 | 28 ft | 5 kts | 210° |
| 2026-05-04 17:47 | 25.24874 | 55.37975 | 29 ft | 5 kts | 210° |
| 2026-05-04 17:47 | 25.24847 | 55.37949 | 29 ft | 5 kts | 243° |
| 2026-05-04 17:47 | 25.24855 | 55.37913 | 29 ft | 5 kts | 303° |
| 2026-05-04 17:47 | 25.24959 | 55.37747 | 29 ft | 61 kts | 304° |
| 2026-05-04 17:48 | 25.25317 | 55.37107 | 29 ft | 130 kts | 302° |
| 2026-05-04 17:48 | 25.25882 | 55.36061 | 139 ft | 176 kts | 302° |
| 2026-05-04 17:48 | 25.26358 | 55.35290 | 493 ft | 187 kts | 303° |
| 2026-05-04 17:48 | 25.27130 | 55.34093 | 1291 ft | 183 kts | 300° |
| 2026-05-04 17:49 | 25.27749 | 55.32932 | 2309 ft | 175 kts | 300° |
| 2026-05-04 17:49 | 25.28400 | 55.31703 | 2648 ft | 203 kts | 301° |
| 2026-05-04 17:49 | 25.29177 | 55.30300 | 2876 ft | 223 kts | 309° |
| 2026-05-04 17:49 | 25.30513 | 55.29415 | 3293 ft | 233 kts | 350° |
| 2026-05-04 17:50 | 25.32140 | 55.29411 | 3922 ft | 236 kts | 1° |
| 2026-05-04 17:50 | 25.33781 | 55.29492 | 4687 ft | 235 kts | 1° |
| 2026-05-04 17:50 | 25.35411 | 55.29564 | 5500 ft | 233 kts | 1° |
| 2026-05-04 17:50 | 25.37034 | 55.29625 | 6244 ft | 234 kts | 1° |
| 2026-05-04 17:51 | 25.38665 | 55.29708 | 6917 ft | 237 kts | 9° |
| 2026-05-04 17:51 | 25.40198 | 55.30423 | 7485 ft | 249 kts | 34° |
| 2026-05-04 17:51 | 25.41462 | 55.31876 | 7715 ft | 275 kts | 49° |
| 2026-05-04 17:51 | 25.42679 | 55.33569 | 8239 ft | 284 kts | 49° |
| 2026-05-04 17:52 | 25.43919 | 55.35290 | 8962 ft | 287 kts | 49° |
| 2026-05-04 17:52 | 25.45129 | 55.36971 | 9704 ft | 289 kts | 49° |
| 2026-05-04 17:52 | 25.46354 | 55.38653 | 10288 ft | 294 kts | 49° |
| 2026-05-04 17:52 | 25.47713 | 55.40510 | 10476 ft | 317 kts | 49° |
| 2026-05-04 17:53 | 25.49141 | 55.42485 | 10631 ft | 338 kts | 50° |
| 2026-05-04 17:53 | 25.50618 | 55.44600 | 10834 ft | 355 kts | 51° |
| 2026-05-04 17:53 | 25.51945 | 55.46936 | 11275 ft | 365 kts | 66° |
| 2026-05-04 17:53 | 25.52467 | 55.49699 | 11867 ft | 371 kts | 88° |
| 2026-05-04 17:54 | 25.52080 | 55.52542 | 12466 ft | 378 kts | 108° |
| 2026-05-04 17:54 | 25.50868 | 55.55137 | 13033 ft | 383 kts | 121° |
| 2026-05-04 17:54 | 25.49419 | 55.57631 | 13584 ft | 387 kts | 122° |
| 2026-05-04 17:54 | 25.47928 | 55.60131 | 14042 ft | 392 kts | 122° |
| 2026-05-04 17:55 | 25.46436 | 55.62673 | 14542 ft | 395 kts | 122° |
| 2026-05-04 17:55 | 25.44951 | 55.65254 | 15023 ft | 399 kts | 121° |
| 2026-05-04 17:55 | 25.43468 | 55.67856 | 15516 ft | 402 kts | 121° |
| 2026-05-04 17:55 | 25.42240 | 55.70636 | 15969 ft | 405 kts | 105° |
| 2026-05-04 17:56 | 25.41610 | 55.73675 | 16461 ft | 407 kts | 101° |
| 2026-05-04 17:56 | 25.41023 | 55.76760 | 16929 ft | 411 kts | 101° |
| 2026-05-04 17:56 | 25.40403 | 55.79867 | 17394 ft | 415 kts | 102° |
| 2026-05-04 17:56 | 25.39744 | 55.82989 | 17855 ft | 419 kts | 102° |
| 2026-05-04 17:57 | 25.39064 | 55.86143 | 18282 ft | 423 kts | 103° |
| 2026-05-04 17:57 | 25.38380 | 55.89319 | 18701 ft | 426 kts | 103° |
| 2026-05-04 17:57 | 25.37694 | 55.92512 | 19136 ft | 428 kts | 103° |
| 2026-05-04 17:57 | 25.37007 | 55.95722 | 19557 ft | 431 kts | 103° |
| 2026-05-04 17:58 | 25.36316 | 55.98960 | 19966 ft | 433 kts | 103° |
| 2026-05-04 17:58 | 25.35630 | 56.02172 | 20360 ft | 437 kts | 103° |
| 2026-05-04 17:58 | 25.34930 | 56.05449 | 20756 ft | 440 kts | 103° |
| 2026-05-04 17:58 | 25.34225 | 56.08750 | 21154 ft | 442 kts | 103° |
| 2026-05-04 17:59 | 25.33527 | 56.12006 | 21514 ft | 445 kts | 103° |
| 2026-05-04 17:59 | 25.32815 | 56.15354 | 21886 ft | 448 kts | 102° |
| 2026-05-04 17:59 | 25.32058 | 56.22222 | 22648 ft | 453 kts | 94° |
| 2026-05-04 18:00 | 25.31853 | 56.25711 | 22997 ft | 456 kts | 93° |
| 2026-05-04 18:00 | 25.31630 | 56.29218 | 23324 ft | 459 kts | 94° |
| 2026-05-04 18:00 | 25.31365 | 56.32744 | 23594 ft | 462 kts | 95° |
| 2026-05-04 18:00 | 25.31072 | 56.36296 | 23889 ft | 465 kts | 95° |
| 2026-05-04 18:01 | 25.30775 | 56.39862 | 24174 ft | 467 kts | 94° |
| 2026-05-04 18:01 | 25.30598 | 56.43460 | 24434 ft | 470 kts | 91° |
| 2026-05-04 18:01 | 25.30511 | 56.47086 | 24702 ft | 473 kts | 91° |
| 2026-05-04 18:02 | 25.30367 | 56.54378 | 25196 ft | 478 kts | 91° |
| 2026-05-04 18:02 | 25.30265 | 56.58063 | 25455 ft | 480 kts | 91° |
| 2026-05-04 18:02 | 25.30152 | 56.61759 | 25710 ft | 483 kts | 91° |
| 2026-05-04 18:02 | 25.30034 | 56.65480 | 25949 ft | 485 kts | 91° |
| 2026-05-04 18:03 | 25.29915 | 56.69216 | 26200 ft | 488 kts | 91° |
| 2026-05-04 18:03 | 25.29796 | 56.72973 | 26444 ft | 490 kts | 91° |
| 2026-05-04 18:03 | 25.29677 | 56.76744 | 26678 ft | 492 kts | 91° |
| 2026-05-04 18:03 | 25.29557 | 56.80537 | 26905 ft | 495 kts | 91° |
| 2026-05-04 18:04 | 25.29439 | 56.84289 | 27127 ft | 497 kts | 91° |
| 2026-05-04 18:04 | 25.29327 | 56.88167 | 27352 ft | 499 kts | 91° |
| 2026-05-04 18:04 | 25.29113 | 56.95874 | 27771 ft | 504 kts | 91° |
| 2026-05-04 18:05 | 25.29002 | 56.99754 | 27978 ft | 506 kts | 91° |
| 2026-05-04 18:05 | 25.28890 | 57.03595 | 28179 ft | 508 kts | 91° |
| 2026-05-04 18:05 | 25.28776 | 57.07501 | 28384 ft | 509 kts | 91° |
| 2026-05-04 18:05 | 25.28662 | 57.11340 | 28577 ft | 511 kts | 91° |
| 2026-05-04 18:06 | 25.28436 | 57.19168 | 28949 ft | 515 kts | 91° |
| 2026-05-04 18:06 | 25.28327 | 57.23135 | 29129 ft | 517 kts | 91° |
| 2026-05-04 18:06 | 25.28218 | 57.27108 | 29301 ft | 519 kts | 91° |
| 2026-05-04 18:07 | 25.28108 | 57.31082 | 29496 ft | 520 kts | 91° |
| 2026-05-04 18:07 | 25.27996 | 57.35096 | 29754 ft | 520 kts | 91° |
| 2026-05-04 18:07 | 25.27882 | 57.39087 | 29995 ft | 519 kts | 91° |
| 2026-05-04 18:07 | 25.27767 | 57.43069 | 30252 ft | 518 kts | 91° |
| 2026-05-04 18:08 | 25.27650 | 57.47038 | 30508 ft | 518 kts | 91° |
| 2026-05-04 18:08 | 25.27533 | 57.51011 | 30766 ft | 517 kts | 91° |
| 2026-05-04 18:08 | 25.27416 | 57.54979 | 31014 ft | 516 kts | 91° |
| 2026-05-04 18:08 | 25.27297 | 57.58939 | 31243 ft | 516 kts | 91° |
| 2026-05-04 18:09 | 25.27055 | 57.66854 | 31752 ft | 515 kts | 91° |
| 2026-05-04 18:09 | 25.26812 | 57.74750 | 32269 ft | 514 kts | 91° |
| 2026-05-04 18:10 | 25.26688 | 57.78690 | 32528 ft | 513 kts | 91° |
| 2026-05-04 18:10 | 25.26557 | 57.82616 | 32776 ft | 512 kts | 91° |
| 2026-05-04 18:10 | 25.26416 | 57.86550 | 33040 ft | 512 kts | 91° |
| 2026-05-04 18:10 | 25.26272 | 57.90473 | 33300 ft | 511 kts | 91° |
| 2026-05-04 18:11 | 25.26126 | 57.94407 | 33553 ft | 510 kts | 91° |
| 2026-05-04 18:11 | 25.25980 | 57.98323 | 33802 ft | 510 kts | 91° |
| 2026-05-04 18:11 | 25.25834 | 58.02238 | 34013 ft | 510 kts | 91° |
| 2026-05-04 18:11 | 25.25691 | 58.06053 | 34188 ft | 510 kts | 91° |
| 2026-05-04 18:12 | 25.25545 | 58.09976 | 34355 ft | 511 kts | 91° |
| 2026-05-04 18:12 | 25.25399 | 58.13898 | 34536 ft | 511 kts | 91° |
| 2026-05-04 18:12 | 25.25252 | 58.17818 | 34745 ft | 510 kts | 91° |
| 2026-05-04 18:12 | 25.25102 | 58.21747 | 34953 ft | 510 kts | 91° |
| 2026-05-04 18:13 | 25.24952 | 58.25654 | 35135 ft | 510 kts | 91° |
| 2026-05-04 18:13 | 25.24800 | 58.29571 | 35309 ft | 510 kts | 91° |
| 2026-05-04 18:13 | 25.24495 | 58.37402 | 35694 ft | 509 kts | 91° |
| 2026-05-04 18:14 | 25.24341 | 58.41325 | 35871 ft | 509 kts | 91° |
| 2026-05-04 18:14 | 25.24188 | 58.45213 | 36036 ft | 509 kts | 91° |
| 2026-05-04 18:14 | 25.24032 | 58.49117 | 36220 ft | 509 kts | 91° |
| 2026-05-04 18:15 | 25.23717 | 58.56901 | 36590 ft | 508 kts | 91° |
| 2026-05-04 18:15 | 25.23394 | 58.64723 | 36745 ft | 509 kts | 91° |
| 2026-05-04 18:16 | 25.23071 | 58.72529 | 36750 ft | 508 kts | 91° |
| 2026-05-04 18:16 | 25.22747 | 58.80330 | 36760 ft | 507 kts | 91° |
| 2026-05-04 18:17 | 25.22254 | 58.91936 | 36748 ft | 506 kts | 91° |
| 2026-05-04 18:18 | 25.21750 | 59.03565 | 36751 ft | 505 kts | 91° |
| 2026-05-04 18:18 | 25.21408 | 59.11317 | 36759 ft | 504 kts | 92° |
| 2026-05-04 18:19 | 25.20891 | 59.22927 | 36762 ft | 505 kts | 92° |
| 2026-05-04 18:19 | 25.20540 | 59.30673 | 36758 ft | 505 kts | 92° |
| 2026-05-04 18:20 | 25.20183 | 59.38409 | 36761 ft | 505 kts | 92° |
| 2026-05-04 18:20 | 25.19814 | 59.46162 | 36756 ft | 505 kts | 92° |
| 2026-05-04 18:21 | 25.19439 | 59.53920 | 36751 ft | 506 kts | 92° |
| 2026-05-04 18:21 | 25.19062 | 59.61684 | 36760 ft | 506 kts | 92° |
| 2026-05-04 18:22 | 25.18680 | 59.69457 | 36762 ft | 507 kts | 92° |
| 2026-05-04 18:22 | 25.18294 | 59.77227 | 36752 ft | 507 kts | 92° |
| 2026-05-04 18:23 | 25.17906 | 59.84987 | 36749 ft | 506 kts | 92° |
| 2026-05-04 18:23 | 25.17513 | 59.92744 | 36751 ft | 507 kts | 92° |
| 2026-05-04 18:24 | 25.17118 | 60.00438 | 36764 ft | 506 kts | 92° |
| 2026-05-04 18:24 | 25.16718 | 60.08193 | 36752 ft | 506 kts | 92° |
| 2026-05-04 18:25 | 25.16381 | 60.14647 | 36750 ft | 506 kts | 92° |
| 2026-05-04 18:25 | 25.15957 | 60.22398 | 36752 ft | 506 kts | 92° |
| 2026-05-04 18:26 | 25.15506 | 60.30146 | 36758 ft | 505 kts | 92° |
| 2026-05-04 18:26 | 25.15052 | 60.37891 | 36757 ft | 505 kts | 93° |
| 2026-05-04 18:27 | 25.14599 | 60.45615 | 36759 ft | 504 kts | 93° |
| 2026-05-04 18:27 | 25.14145 | 60.53333 | 36754 ft | 504 kts | 93° |
| 2026-05-04 18:28 | 25.13687 | 60.61055 | 36763 ft | 503 kts | 93° |
| 2026-05-04 18:28 | 25.13227 | 60.68766 | 36751 ft | 503 kts | 93° |
| 2026-05-04 18:29 | 25.12770 | 60.76459 | 36765 ft | 502 kts | 93° |
| 2026-05-04 18:29 | 25.12315 | 60.84083 | 36755 ft | 502 kts | 93° |
| 2026-05-04 18:30 | 25.11617 | 60.95622 | 36756 ft | 502 kts | 93° |
| 2026-05-04 18:31 | 25.11144 | 61.03326 | 36755 ft | 502 kts | 93° |
| 2026-05-04 18:31 | 25.10669 | 61.11010 | 36767 ft | 502 kts | 93° |
| 2026-05-04 18:32 | 25.10188 | 61.18693 | 36760 ft | 502 kts | 93° |
| 2026-05-04 18:32 | 25.09706 | 61.26374 | 36757 ft | 502 kts | 93° |
| 2026-05-04 18:33 | 25.09220 | 61.34065 | 36758 ft | 502 kts | 93° |
| 2026-05-04 18:33 | 25.08730 | 61.41755 | 36755 ft | 502 kts | 93° |
| 2026-05-04 18:34 | 25.08238 | 61.49385 | 36771 ft | 502 kts | 93° |
| 2026-05-04 18:34 | 25.07745 | 61.57057 | 36773 ft | 502 kts | 93° |
| 2026-05-04 18:35 | 25.07291 | 61.64760 | 36765 ft | 502 kts | 92° |
| 2026-05-04 18:35 | 25.06835 | 61.72448 | 36772 ft | 502 kts | 93° |
| 2026-05-04 18:35 | 25.06886 | 61.76291 | 36745 ft | 500 kts | 78° |
| 2026-05-04 18:36 | 25.07782 | 61.79960 | 36788 ft | 493 kts | 64° |
| 2026-05-04 18:36 | 25.09364 | 61.83285 | 36756 ft | 487 kts | 51° |
| 2026-05-04 18:36 | 25.11512 | 61.86132 | 36781 ft | 482 kts | 43° |
| 2026-05-04 18:37 | 25.16099 | 61.91537 | 36784 ft | 483 kts | 42° |
| 2026-05-04 18:37 | 25.20699 | 61.96971 | 36767 ft | 485 kts | 43° |
| 2026-05-04 18:38 | 25.25270 | 62.02479 | 36777 ft | 486 kts | 43° |
| 2026-05-04 18:38 | 25.29824 | 62.08023 | 36772 ft | 488 kts | 43° |
| 2026-05-04 18:39 | 25.34387 | 62.13590 | 36780 ft | 488 kts | 43° |
| 2026-05-04 18:39 | 25.38909 | 62.19109 | 36775 ft | 489 kts | 43° |
| 2026-05-04 18:40 | 25.43441 | 62.24645 | 36784 ft | 490 kts | 43° |
| 2026-05-04 18:40 | 25.48008 | 62.30229 | 36783 ft | 490 kts | 43° |
| 2026-05-04 18:41 | 25.52552 | 62.35791 | 36781 ft | 490 kts | 43° |
| 2026-05-04 18:41 | 25.57147 | 62.41426 | 36778 ft | 489 kts | 43° |
| 2026-05-04 18:42 | 25.61673 | 62.46981 | 36789 ft | 488 kts | 43° |
| 2026-05-04 18:42 | 25.66169 | 62.52504 | 36773 ft | 487 kts | 43° |
| 2026-05-04 18:43 | 25.70710 | 62.58091 | 36785 ft | 486 kts | 43° |
| 2026-05-04 18:43 | 25.75227 | 62.63656 | 36782 ft | 485 kts | 43° |
| 2026-05-04 18:44 | 25.79737 | 62.69220 | 36789 ft | 484 kts | 43° |
| 2026-05-04 18:44 | 25.84188 | 62.74715 | 36791 ft | 484 kts | 43° |
| 2026-05-04 18:45 | 25.88694 | 62.80286 | 36792 ft | 485 kts | 43° |
| 2026-05-04 18:45 | 25.93201 | 62.85866 | 36803 ft | 485 kts | 43° |
| 2026-05-04 18:46 | 25.97705 | 62.91449 | 36803 ft | 485 kts | 43° |
| 2026-05-04 18:46 | 26.02141 | 62.96950 | 36812 ft | 486 kts | 42° |
| 2026-05-04 18:47 | 26.06695 | 63.02580 | 36812 ft | 486 kts | 42° |
| 2026-05-04 18:47 | 26.11187 | 63.08143 | 36819 ft | 487 kts | 42° |
| 2026-05-04 18:48 | 26.15703 | 63.13748 | 36831 ft | 486 kts | 42° |
| 2026-05-04 18:48 | 26.20216 | 63.19354 | 36834 ft | 487 kts | 42° |
| 2026-05-04 18:49 | 26.24740 | 63.24981 | 36841 ft | 487 kts | 42° |
| 2026-05-04 18:49 | 26.29262 | 63.30613 | 36839 ft | 487 kts | 42° |
| 2026-05-04 18:50 | 26.33732 | 63.36188 | 36850 ft | 487 kts | 42° |
| 2026-05-04 18:50 | 26.38247 | 63.41828 | 36848 ft | 487 kts | 42° |
| 2026-05-04 18:51 | 26.42755 | 63.47464 | 36850 ft | 486 kts | 42° |
| 2026-05-04 18:51 | 26.47231 | 63.53067 | 36851 ft | 486 kts | 42° |
| 2026-05-04 18:52 | 26.51734 | 63.58710 | 36857 ft | 486 kts | 42° |
| 2026-05-04 18:52 | 26.56231 | 63.64354 | 36854 ft | 486 kts | 42° |
| 2026-05-04 18:53 | 26.60716 | 63.69989 | 36855 ft | 485 kts | 42° |
| 2026-05-04 18:53 | 26.65198 | 63.75628 | 36852 ft | 485 kts | 42° |
| 2026-05-04 18:54 | 26.69672 | 63.81264 | 36853 ft | 484 kts | 42° |
| 2026-05-04 18:54 | 26.74137 | 63.86897 | 36858 ft | 484 kts | 42° |
| 2026-05-04 18:55 | 26.78605 | 63.92541 | 36865 ft | 485 kts | 42° |
| 2026-05-04 18:55 | 26.85322 | 64.01041 | 36867 ft | 487 kts | 42° |
| 2026-05-04 18:56 | 26.89790 | 64.06704 | 36872 ft | 488 kts | 42° |
| 2026-05-04 18:56 | 26.93990 | 64.12757 | 36866 ft | 500 kts | 55° |
| 2026-05-04 18:57 | 26.96584 | 64.20060 | 36868 ft | 513 kts | 74° |
| 2026-05-04 18:57 | 26.97944 | 64.27936 | 36883 ft | 515 kts | 76° |
| 2026-05-04 18:58 | 26.99208 | 64.35860 | 36881 ft | 516 kts | 76° |
| 2026-05-04 18:58 | 27.00525 | 64.43771 | 36887 ft | 516 kts | 75° |
| 2026-05-04 18:59 | 27.01885 | 64.51678 | 36886 ft | 516 kts | 75° |
| 2026-05-04 18:59 | 27.03256 | 64.59612 | 36903 ft | 521 kts | 75° |
| 2026-05-04 19:00 | 27.04635 | 64.67624 | 36899 ft | 526 kts | 75° |
| 2026-05-04 19:00 | 27.06014 | 64.75703 | 36891 ft | 528 kts | 75° |
| 2026-05-04 19:01 | 27.07393 | 64.83820 | 36890 ft | 530 kts | 75° |
| 2026-05-04 19:01 | 27.08770 | 64.91950 | 36885 ft | 530 kts | 75° |
| 2026-05-04 19:02 | 27.10143 | 65.00089 | 36892 ft | 530 kts | 75° |
| 2026-05-04 19:02 | 27.11511 | 65.08216 | 36889 ft | 530 kts | 75° |
| 2026-05-04 19:03 | 27.12875 | 65.16345 | 36887 ft | 530 kts | 75° |
| 2026-05-04 19:03 | 27.14232 | 65.24476 | 36887 ft | 530 kts | 75° |
| 2026-05-04 19:04 | 27.15358 | 65.31233 | 36877 ft | 529 kts | 75° |
| 2026-05-04 19:04 | 27.16714 | 65.39401 | 36890 ft | 528 kts | 75° |
| 2026-05-04 19:05 | 27.18054 | 65.47507 | 36896 ft | 528 kts | 75° |
| 2026-05-04 19:05 | 27.19383 | 65.55530 | 36875 ft | 526 kts | 75° |
| 2026-05-04 19:06 | 27.20703 | 65.63606 | 36884 ft | 526 kts | 75° |
| 2026-05-04 19:06 | 27.22013 | 65.71642 | 36894 ft | 526 kts | 75° |
| 2026-05-04 19:07 | 27.23340 | 65.79793 | 36881 ft | 527 kts | 75° |
| 2026-05-04 19:07 | 27.24646 | 65.87845 | 36871 ft | 527 kts | 75° |
| 2026-05-04 19:08 | 27.25954 | 65.95939 | 36874 ft | 527 kts | 75° |
| 2026-05-04 19:08 | 27.27261 | 66.04047 | 36869 ft | 527 kts | 75° |
| 2026-05-04 19:09 | 27.28581 | 66.12276 | 36879 ft | 527 kts | 75° |
| 2026-05-04 19:09 | 27.29878 | 66.20396 | 36873 ft | 528 kts | 75° |
| 2026-05-04 19:10 | 27.31172 | 66.28523 | 36875 ft | 528 kts | 75° |
| 2026-05-04 19:10 | 27.32463 | 66.36658 | 36871 ft | 528 kts | 75° |
| 2026-05-04 19:11 | 27.33734 | 66.44714 | 36882 ft | 528 kts | 75° |
| 2026-05-04 19:11 | 27.35015 | 66.52846 | 36880 ft | 528 kts | 75° |
| 2026-05-04 19:12 | 27.36926 | 66.65064 | 36802 ft | 528 kts | 75° |
| 2026-05-04 19:13 | 27.38192 | 66.73186 | 36861 ft | 527 kts | 74° |
| 2026-05-04 19:13 | 27.39457 | 66.81312 | 36851 ft | 528 kts | 74° |
| 2026-05-04 19:14 | 27.40715 | 66.89449 | 36844 ft | 528 kts | 74° |
| 2026-05-04 19:14 | 27.41964 | 66.97582 | 36845 ft | 526 kts | 74° |
| 2026-05-04 19:15 | 27.43205 | 67.05665 | 36835 ft | 529 kts | 74° |
| 2026-05-04 19:15 | 27.44450 | 67.13819 | 36825 ft | 526 kts | 74° |
| 2026-05-04 19:16 | 27.45691 | 67.21967 | 36804 ft | 528 kts | 74° |
| 2026-05-04 19:16 | 27.47025 | 67.30117 | 36760 ft | 527 kts | 73° |
| 2026-05-04 19:17 | 27.48458 | 67.38204 | 36780 ft | 526 kts | 72° |
| 2026-05-04 19:17 | 27.49878 | 67.46237 | 36748 ft | 527 kts | 73° |
| 2026-05-04 19:18 | 27.51295 | 67.54408 | 36725 ft | 528 kts | 73° |
| 2026-05-04 19:18 | 27.52680 | 67.62492 | 36719 ft | 528 kts | 73° |
| 2026-05-04 19:19 | 27.54065 | 67.70618 | 36712 ft | 528 kts | 73° |
| 2026-05-04 19:19 | 27.55449 | 67.78751 | 36704 ft | 528 kts | 73° |
| 2026-05-04 19:20 | 27.56829 | 67.86874 | 36703 ft | 528 kts | 73° |
| 2026-05-04 19:20 | 27.58180 | 67.94870 | 36704 ft | 527 kts | 73° |
| 2026-05-04 19:21 | 27.59548 | 68.03001 | 36705 ft | 527 kts | 73° |
| 2026-05-04 19:21 | 27.60912 | 68.11124 | 36707 ft | 527 kts | 73° |
| 2026-05-04 19:22 | 27.62269 | 68.19245 | 36705 ft | 527 kts | 73° |
| 2026-05-04 19:22 | 27.63621 | 68.27360 | 36704 ft | 527 kts | 73° |
| 2026-05-04 19:23 | 27.64968 | 68.35478 | 36704 ft | 526 kts | 73° |
| 2026-05-04 19:23 | 27.66298 | 68.43528 | 36709 ft | 526 kts | 74° |
| 2026-05-04 19:24 | 27.67634 | 68.51635 | 36707 ft | 526 kts | 74° |
| 2026-05-04 19:24 | 27.68966 | 68.59754 | 36708 ft | 525 kts | 74° |
| 2026-05-04 19:25 | 27.70293 | 68.67869 | 36704 ft | 526 kts | 74° |
| 2026-05-04 19:25 | 27.71873 | 68.75875 | 36698 ft | 516 kts | 62° |
| 2026-05-04 19:25 | 27.73392 | 68.79487 | 36721 ft | 505 kts | 52° |
| 2026-05-04 19:26 | 27.75356 | 68.82734 | 36707 ft | 495 kts | 43° |
| 2026-05-04 19:26 | 27.77716 | 68.85492 | 36713 ft | 484 kts | 34° |
| 2026-05-04 19:26 | 27.80220 | 68.88015 | 36715 ft | 483 kts | 33° |
| 2026-05-04 19:27 | 27.85236 | 68.93014 | 36712 ft | 484 kts | 33° |
| 2026-05-04 19:27 | 27.90265 | 68.98094 | 36709 ft | 485 kts | 34° |
| 2026-05-04 19:28 | 27.95272 | 69.03216 | 36712 ft | 486 kts | 34° |
| 2026-05-04 19:28 | 28.00229 | 69.08314 | 36715 ft | 486 kts | 34° |
| 2026-05-04 19:29 | 28.05230 | 69.13466 | 36711 ft | 486 kts | 34° |
| 2026-05-04 19:29 | 28.10237 | 69.18629 | 36720 ft | 486 kts | 34° |
| 2026-05-04 19:30 | 28.15237 | 69.23787 | 36723 ft | 487 kts | 34° |
| 2026-05-04 19:30 | 28.20240 | 69.28956 | 36723 ft | 487 kts | 34° |
| 2026-05-04 19:31 | 28.25246 | 69.34136 | 36726 ft | 486 kts | 34° |
| 2026-05-04 19:31 | 28.30244 | 69.39312 | 36723 ft | 486 kts | 34° |
| 2026-05-04 19:32 | 28.35240 | 69.44495 | 36726 ft | 486 kts | 34° |
| 2026-05-04 19:32 | 28.40232 | 69.49679 | 36728 ft | 486 kts | 34° |
| 2026-05-04 19:33 | 28.45220 | 69.54867 | 36735 ft | 486 kts | 34° |
| 2026-05-04 19:33 | 28.50209 | 69.60062 | 36743 ft | 486 kts | 34° |
| 2026-05-04 19:34 | 28.55191 | 69.65259 | 36741 ft | 486 kts | 34° |
| 2026-05-04 19:34 | 28.60150 | 69.70440 | 36734 ft | 480 kts | 34° |
| 2026-05-04 19:35 | 28.65039 | 69.75556 | 36740 ft | 475 kts | 34° |
| 2026-05-04 19:35 | 28.67482 | 69.78109 | 36354 ft | 479 kts | 34° |
| 2026-05-04 19:35 | 28.69936 | 69.80675 | 35829 ft | 477 kts | 34° |
| 2026-05-04 19:35 | 28.72384 | 69.83238 | 35208 ft | 478 kts | 35° |
| 2026-05-04 19:36 | 28.74831 | 69.85803 | 34547 ft | 479 kts | 35° |
| 2026-05-04 19:36 | 28.77292 | 69.88384 | 33836 ft | 482 kts | 36° |
| 2026-05-04 19:36 | 28.79763 | 69.90977 | 33030 ft | 484 kts | 36° |
| 2026-05-04 19:36 | 28.82241 | 69.93580 | 32292 ft | 485 kts | 36° |
| 2026-05-04 19:37 | 28.84720 | 69.96188 | 31536 ft | 485 kts | 37° |
| 2026-05-04 19:37 | 28.87173 | 69.98770 | 30781 ft | 486 kts | 37° |
| 2026-05-04 19:37 | 28.89645 | 70.01376 | 30238 ft | 482 kts | 37° |
| 2026-05-04 19:37 | 28.92101 | 70.03967 | 29638 ft | 478 kts | 37° |
| 2026-05-04 19:38 | 28.94532 | 70.06535 | 29014 ft | 473 kts | 38° |
| 2026-05-04 19:38 | 28.96934 | 70.09072 | 28424 ft | 467 kts | 38° |
| 2026-05-04 19:38 | 28.99308 | 70.11580 | 27867 ft | 462 kts | 38° |
| 2026-05-04 19:38 | 29.01653 | 70.14059 | 27317 ft | 456 kts | 38° |
| 2026-05-04 19:39 | 29.03970 | 70.16508 | 26765 ft | 452 kts | 38° |
| 2026-05-04 19:39 | 29.06262 | 70.18933 | 26242 ft | 447 kts | 38° |
| 2026-05-04 19:39 | 29.08527 | 70.21329 | 25711 ft | 442 kts | 39° |
| 2026-05-04 19:39 | 29.10778 | 70.23712 | 25184 ft | 438 kts | 39° |
| 2026-05-04 19:40 | 29.13009 | 70.26076 | 24649 ft | 435 kts | 39° |
| 2026-05-04 19:40 | 29.14473 | 70.27628 | 24298 ft | 433 kts | 39° |
| 2026-05-04 19:40 | 29.17415 | 70.30747 | 23579 ft | 430 kts | 39° |
| 2026-05-04 19:40 | 29.18868 | 70.32289 | 23200 ft | 428 kts | 40° |
| 2026-05-04 19:41 | 29.21045 | 70.34602 | 22609 ft | 424 kts | 40° |
| 2026-05-04 19:41 | 29.23193 | 70.36885 | 22063 ft | 420 kts | 40° |
| 2026-05-04 19:41 | 29.25323 | 70.39151 | 21536 ft | 416 kts | 40° |
| 2026-05-04 19:41 | 29.27434 | 70.41397 | 21019 ft | 412 kts | 40° |
| 2026-05-04 19:42 | 29.29553 | 70.43654 | 20501 ft | 408 kts | 40° |
| 2026-05-04 19:42 | 29.31622 | 70.45859 | 20000 ft | 405 kts | 40° |
| 2026-05-04 19:42 | 29.33676 | 70.48047 | 19502 ft | 402 kts | 40° |
| 2026-05-04 19:42 | 29.35716 | 70.50223 | 18984 ft | 399 kts | 40° |
| 2026-05-04 19:43 | 29.37750 | 70.52393 | 18469 ft | 397 kts | 40° |
| 2026-05-04 19:43 | 29.39744 | 70.54522 | 17954 ft | 395 kts | 40° |
| 2026-05-04 19:43 | 29.41755 | 70.56670 | 17395 ft | 393 kts | 40° |
| 2026-05-04 19:43 | 29.43745 | 70.58798 | 16884 ft | 389 kts | 40° |
| 2026-05-04 19:44 | 29.45714 | 70.60904 | 16385 ft | 385 kts | 40° |
| 2026-05-04 19:44 | 29.47663 | 70.62989 | 15889 ft | 382 kts | 40° |
| 2026-05-04 19:44 | 29.49598 | 70.65063 | 15410 ft | 378 kts | 40° |
| 2026-05-04 19:44 | 29.51516 | 70.67118 | 14922 ft | 375 kts | 40° |
| 2026-05-04 19:45 | 29.53420 | 70.69160 | 14443 ft | 372 kts | 40° |
| 2026-05-04 19:45 | 29.55306 | 70.71183 | 13941 ft | 371 kts | 40° |
| 2026-05-04 19:45 | 29.57185 | 70.73200 | 13444 ft | 369 kts | 40° |
| 2026-05-04 19:45 | 29.59056 | 70.75208 | 12923 ft | 366 kts | 40° |
| 2026-05-04 19:46 | 29.60908 | 70.77197 | 12427 ft | 363 kts | 40° |
| 2026-05-04 19:46 | 29.62746 | 70.79173 | 11937 ft | 361 kts | 40° |
| 2026-05-04 19:46 | 29.64542 | 70.81104 | 11463 ft | 359 kts | 40° |
| 2026-05-04 19:46 | 29.66393 | 70.83096 | 10799 ft | 362 kts | 41° |
| 2026-05-04 19:47 | 29.68207 | 70.85055 | 10554 ft | 353 kts | 41° |
| 2026-05-04 19:47 | 29.69970 | 70.86963 | 10382 ft | 342 kts | 41° |
| 2026-05-04 19:47 | 29.71679 | 70.88813 | 10223 ft | 332 kts | 41° |
| 2026-05-04 19:47 | 29.73302 | 70.90570 | 10083 ft | 322 kts | 41° |
| 2026-05-04 19:48 | 29.74909 | 70.92309 | 9951 ft | 312 kts | 41° |
| 2026-05-04 19:48 | 29.76464 | 70.93992 | 9817 ft | 303 kts | 41° |
| 2026-05-04 19:48 | 29.77977 | 70.95629 | 9740 ft | 293 kts | 40° |
| 2026-05-04 19:48 | 29.79472 | 70.97249 | 9304 ft | 296 kts | 41° |
| 2026-05-04 19:49 | 29.80963 | 70.98867 | 9000 ft | 294 kts | 41° |
| 2026-05-04 19:49 | 29.82450 | 71.00479 | 8695 ft | 292 kts | 41° |
| 2026-05-04 19:49 | 29.83908 | 71.02062 | 8396 ft | 290 kts | 41° |
| 2026-05-04 19:49 | 29.85391 | 71.03672 | 8101 ft | 288 kts | 41° |
| 2026-05-04 19:50 | 29.86843 | 71.05249 | 7817 ft | 286 kts | 41° |
| 2026-05-04 19:50 | 29.88285 | 71.06815 | 7540 ft | 283 kts | 41° |
| 2026-05-04 19:50 | 29.89714 | 71.08365 | 7256 ft | 281 kts | 42° |
| 2026-05-04 19:50 | 29.91135 | 71.09908 | 6991 ft | 280 kts | 42° |
| 2026-05-04 19:51 | 29.92547 | 71.11442 | 6703 ft | 278 kts | 43° |
| 2026-05-04 19:51 | 29.93970 | 71.12991 | 6412 ft | 277 kts | 43° |
| 2026-05-04 19:51 | 29.95355 | 71.14531 | 6116 ft | 276 kts | 49° |
| 2026-05-04 19:51 | 29.96264 | 71.16450 | 5827 ft | 273 kts | 72° |
| 2026-05-04 19:52 | 29.96782 | 71.18541 | 5546 ft | 271 kts | 75° |
| 2026-05-04 19:52 | 29.97269 | 71.20671 | 5256 ft | 270 kts | 76° |
| 2026-05-04 19:52 | 29.97744 | 71.22757 | 4972 ft | 268 kts | 76° |
| 2026-05-04 19:52 | 29.98216 | 71.24817 | 4809 ft | 261 kts | 76° |
| 2026-05-04 19:53 | 29.98680 | 71.26812 | 4662 ft | 254 kts | 76° |
| 2026-05-04 19:53 | 29.99131 | 71.28750 | 4555 ft | 246 kts | 76° |
| 2026-05-04 19:53 | 29.99569 | 71.30619 | 4451 ft | 237 kts | 76° |
| 2026-05-04 19:53 | 29.99997 | 71.32450 | 4353 ft | 228 kts | 76° |
| 2026-05-04 19:54 | 30.00402 | 71.34177 | 4257 ft | 220 kts | 76° |
| 2026-05-04 19:54 | 30.00798 | 71.35863 | 4104 ft | 216 kts | 76° |
| 2026-05-04 19:54 | 30.01190 | 71.37537 | 3880 ft | 216 kts | 76° |
| 2026-05-04 19:54 | 30.01704 | 71.39165 | 3617 ft | 219 kts | 54° |
| 2026-05-04 19:55 | 30.02930 | 71.40143 | 3473 ft | 219 kts | 21° |
| 2026-05-04 19:55 | 30.04425 | 71.40582 | 3209 ft | 222 kts | 16° |
| 2026-05-04 19:55 | 30.05922 | 71.40917 | 2927 ft | 217 kts | 10° |
| 2026-05-04 19:55 | 30.07412 | 71.41049 | 2673 ft | 211 kts | 7° |
| 2026-05-04 19:56 | 30.08856 | 71.41136 | 2388 ft | 203 kts | 7° |
| 2026-05-04 19:56 | 30.10207 | 71.41220 | 2164 ft | 183 kts | 8° |
| 2026-05-04 19:56 | 30.11413 | 71.41299 | 1914 ft | 165 kts | 9° |
| 2026-05-04 19:56 | 30.12496 | 71.41387 | 1729 ft | 144 kts | 9° |
| 2026-05-04 19:57 | 30.13467 | 71.41450 | 1542 ft | 136 kts | 8° |
| 2026-05-04 19:57 | 30.14388 | 71.41507 | 1361 ft | 136 kts | 8° |
| 2026-05-04 19:57 | 30.15364 | 71.41580 | 1193 ft | 139 kts | 8° |
| 2026-05-04 19:57 | 30.16333 | 71.41639 | 1007 ft | 141 kts | 8° |
| 2026-05-04 19:58 | 30.17331 | 71.41721 | 799 ft | 145 kts | 10° |
| 2026-05-04 19:58 | 30.18320 | 71.41775 | 618 ft | 142 kts | 8° |
| 2026-05-04 19:58 | 30.19313 | 71.41832 | 453 ft | 141 kts | 9° |
| 2026-05-04 19:58 | 30.20197 | 71.41894 | 411 ft | 111 kts | 7° |
| 2026-05-04 19:59 | 30.20813 | 71.41947 | 410 ft | 67 kts | 4° |
| 2026-05-04 19:59 | 30.21074 | 71.41987 | 409 ft | 16 kts | 45° |
| 2026-05-04 19:59 | 30.21079 | 71.42096 | 410 ft | 13 kts | 90° |
| 2026-05-04 19:59 | 30.21121 | 71.42166 | 410 ft | 12 kts | 11° |
| 2026-05-04 20:00 | 30.21178 | 71.42168 | 408 ft | 4 kts | 324° |
| 2026-05-04 20:00 | 30.21179 | 71.42140 | 410 ft | 3 kts | 192° |
| 2026-05-04 20:00 | 30.21127 | 71.42146 | 410 ft | 12 kts | 174° |
| 2026-05-04 20:00 | 30.21039 | 71.42157 | 410 ft | 13 kts | 174° |
| 2026-05-04 20:01 | 30.20952 | 71.42155 | 410 ft | 12 kts | 182° |
| 2026-05-04 20:01 | 30.20867 | 71.42152 | 410 ft | 12 kts | 184° |
| 2026-05-04 20:01 | 30.20784 | 71.42147 | 410 ft | 12 kts | 184° |
| 2026-05-04 20:01 | 30.20688 | 71.42139 | 410 ft | 16 kts | 184° |
| 2026-05-04 20:02 | 30.20582 | 71.42131 | 410 ft | 15 kts | 184° |
| 2026-05-04 20:02 | 30.20478 | 71.42123 | 410 ft | 15 kts | 183° |
| 2026-05-04 20:02 | 30.20378 | 71.42116 | 410 ft | 14 kts | 183° |
| 2026-05-04 20:02 | 30.19680 | 71.42288 | 409 ft | 0 kts | 98° |